Time;durP1;ratioP1;P1;durP2;ratioP2;P2;SDS_P1;SDS_P2;PMS_P1;PMS_P2;Temp;Humidity;BMP_temperature;BMP_pressure;BME280_temperature;BME280_humidity;BME280_pressure;Samples;Min_cycle;Max_cycle;Signal;HPM_P1;HPM_P2
2021/09/29 00:01:39;;;;;;;5.03;3.35;;;10.50;99.90;;;;;;5081106;28;19927;-74
2021/09/29 00:04:05;;;;;;;4.40;3.95;;;10.60;99.90;;;;;;5071639;28;20083;-74
2021/09/29 00:06:30;;;;;;;4.88;3.50;;;10.60;99.90;;;;;;5075978;28;20048;-74
2021/09/29 00:08:56;;;;;;;7.60;4.60;;;10.60;99.90;;;;;;5066707;28;20055;-75
2021/09/29 00:11:22;;;;;;;4.95;2.83;;;10.60;99.90;;;;;;5073597;28;20052;-75
2021/09/29 00:13:48;;;;;;;11.07;3.78;;;10.60;99.90;;;;;;5071013;28;20187;-75
2021/09/29 00:16:14;;;;;;;7.57;4.28;;;10.50;99.90;;;;;;5093233;28;20044;-75
2021/09/29 00:18:41;;;;;;;;;;;10.50;99.90;;;;;;5072810;28;20401;-75
2021/09/29 00:21:07;;;;;;;6.63;4.38;;;10.50;99.90;;;;;;5073976;28;19916;-75
2021/09/29 00:23:33;;;;;;;9.52;3.25;;;10.50;99.90;;;;;;5061830;28;20041;-75
2021/09/29 00:25:59;;;;;;;5.63;3.75;;;10.50;99.90;;;;;;5071932;28;20090;-75
2021/09/29 00:28:24;;;;;;;7.80;3.20;;;10.50;99.90;;;;;;5074017;28;20044;-73
2021/09/29 00:30:50;;;;;;;5.20;4.22;;;10.50;99.90;;;;;;5071713;28;20470;-74
2021/09/29 00:33:18;;;;;;;4.80;3.95;;;10.50;99.90;;;;;;5069895;28;20053;-75
2021/09/29 00:35:44;;;;;;;7.75;2.92;;;10.50;99.90;;;;;;5080319;28;20040;-74
2021/09/29 00:38:09;;;;;;;7.90;4.07;;;10.50;99.90;;;;;;5072714;28;20083;-75
2021/09/29 00:40:35;;;;;;;3.53;2.42;;;10.40;99.90;;;;;;5080034;28;20063;-75
2021/09/29 00:43:01;;;;;;;11.25;3.28;;;10.40;99.90;;;;;;5072209;28;20044;-76
2021/09/29 00:45:26;;;;;;;4.65;3.25;;;10.40;99.90;;;;;;5054488;28;20029;-75
2021/09/29 00:47:52;;;;;;;4.43;3.15;;;10.40;99.90;;;;;;5072647;28;20045;-75
2021/09/29 00:50:18;;;;;;;7.57;3.92;;;10.40;99.90;;;;;;5068234;28;20055;-75
2021/09/29 00:52:44;;;;;;;4.18;3.10;;;10.30;99.90;;;;;;5074028;28;20090;-75
2021/09/29 00:55:12;;;;;;;6.07;3.17;;;10.30;99.90;;;;;;5072854;28;20049;-75
2021/09/29 00:57:38;;;;;;;5.05;3.95;;;10.30;99.90;;;;;;5073155;28;20492;-75
2021/09/29 01:00:05;;;;;;;5.13;3.50;;;10.30;99.90;;;;;;5050599;28;20036;-74
2021/09/29 01:02:32;;;;;;;3.92;3.47;;;10.30;99.90;;;;;;5072904;28;20098;-75
2021/09/29 01:04:57;;;;;;;6.80;3.00;;;10.20;99.90;;;;;;5065458;28;20044;-75
2021/09/29 01:07:32;;;;;;;5.75;3.83;;;10.20;99.90;;;;;;5072423;28;20115;-75
2021/09/29 01:10:21;;;;;;;5.95;4.20;;;10.20;99.90;;;;;;5071742;28;20510;-75
2021/09/29 01:13:01;;;;;;;5.88;4.05;;;10.10;99.90;;;;;;5072554;28;20044;-75
2021/09/29 01:15:33;;;;;;;13.00;4.10;;;10.20;99.90;;;;;;5072951;28;20040;-75
2021/09/29 01:18:09;;;;;;;6.75;3.83;;;10.20;99.90;;;;;;5067937;28;20444;-75
2021/09/29 01:20:42;;;;;;;7.18;3.35;;;10.10;99.90;;;;;;5071073;28;20085;-75
2021/09/29 01:23:38;;;;;;;4.60;4.00;;;10.10;99.90;;;;;;5071575;28;20067;-75
2021/09/29 01:26:14;;;;;;;4.38;3.20;;;10.10;99.90;;;;;;5071424;28;20100;-75
2021/09/29 01:28:42;;;;;;;3.05;2.58;;;10.10;99.90;;;;;;5078118;28;20140;-75
2021/09/29 01:31:08;;;;;;;4.97;2.42;;;10.10;99.90;;;;;;5079951;28;20110;-77
2021/09/29 01:33:36;;;;;;;8.35;4.47;;;10.10;99.90;;;;;;5070719;28;20110;-76
2021/09/29 01:36:03;;;;;;;10.85;3.65;;;10.10;99.90;;;;;;5054873;28;20489;-76
2021/09/29 01:38:30;;;;;;;4.82;3.67;;;10.10;99.90;;;;;;5055337;28;20044;-76
2021/09/29 01:40:57;;;;;;;4.95;3.65;;;10.10;99.90;;;;;;5072043;28;20119;-77
2021/09/29 01:43:23;;;;;;;6.40;3.53;;;10.10;99.90;;;;;;5071534;28;20044;-76
2021/09/29 01:45:49;;;;;;;6.68;3.45;;;10.10;99.90;;;;;;5055368;28;20033;-77
2021/09/29 01:48:18;;;;;;;4.90;3.28;;;10.10;99.90;;;;;;5070307;28;20154;-76
2021/09/29 01:50:50;;;;;;;7.05;2.90;;;10.10;99.90;;;;;;5071461;28;20104;-76
2021/09/29 01:53:18;;;;;;;3.80;2.60;;;10.10;99.90;;;;;;5071258;28;20047;-76
2021/09/29 01:55:44;;;;;;;6.95;3.65;;;10.10;99.90;;;;;;5074489;28;20048;-76
2021/09/29 01:58:10;;;;;;;;;;;10.10;99.90;;;;;;5071076;28;20036;-76
2021/09/29 02:00:39;;;;;;;5.70;3.22;;;10.10;99.90;;;;;;5071897;28;19939;-76
2021/09/29 02:03:04;;;;;;;4.43;3.42;;;10.10;99.90;;;;;;5070784;28;20120;-76
2021/09/29 02:05:35;;;;;;;3.08;2.58;;;10.00;99.90;;;;;;5055603;28;20139;-76
2021/09/29 02:08:06;;;;;;;3.83;3.28;;;10.10;99.90;;;;;;5070673;28;20040;-76
2021/09/29 02:10:33;;;;;;;5.88;3.28;;;10.00;99.90;;;;;;5069288;28;20036;-75
2021/09/29 02:12:59;;;;;;;10.63;4.22;;;10.10;99.90;;;;;;5070181;28;20052;-75
2021/09/29 02:15:24;;;;;;;7.13;3.60;;;10.00;99.90;;;;;;5057703;28;20033;-76
2021/09/29 02:17:52;;;;;;;4.40;3.85;;;10.10;99.90;;;;;;5072797;28;20033;-76
2021/09/29 02:20:19;;;;;;;4.53;3.72;;;10.10;99.90;;;;;;5069914;28;20036;-75
2021/09/29 02:22:45;;;;;;;5.13;3.63;;;10.00;99.90;;;;;;5074827;28;20058;-77
2021/09/29 02:25:12;;;;;;;4.07;3.35;;;10.00;99.90;;;;;;5054477;28;20044;-76
2021/09/29 02:27:38;;;;;;;4.88;3.28;;;10.00;99.90;;;;;;5070884;28;20047;-77
2021/09/29 02:30:07;;;;;;;5.65;4.72;;;10.00;99.90;;;;;;5075599;28;20052;-77
2021/09/29 02:32:34;;;;;;;3.03;2.72;;;10.00;99.90;;;;;;5069485;28;20044;-76
2021/09/29 02:35:00;;;;;;;5.43;2.83;;;10.00;99.90;;;;;;5072662;28;20098;-76
2021/09/29 02:37:26;;;;;;;3.58;2.88;;;10.00;99.90;;;;;;5070311;28;20044;-76
2021/09/29 02:39:52;;;;;;;3.95;2.65;;;10.00;99.90;;;;;;5046172;28;20543;-76
2021/09/29 02:42:17;;;;;;;4.00;2.15;;;10.00;99.90;;;;;;5053528;28;20093;-76
2021/09/29 02:44:43;;;;;;;5.38;3.33;;;10.00;99.90;;;;;;5073282;28;20067;-75
2021/09/29 02:47:09;;;;;;;6.95;3.35;;;10.00;99.90;;;;;;5057134;28;20095;-76
2021/09/29 02:49:35;;;;;;;5.63;3.47;;;9.90;99.90;;;;;;5073877;28;20507;-76
2021/09/29 02:52:01;;;;;;;10.98;3.83;;;9.90;99.90;;;;;;5067272;28;20484;-76
2021/09/29 02:54:26;;;;;;;6.55;4.55;;;9.90;99.90;;;;;;5070975;28;20123;-76
2021/09/29 02:56:52;;;;;;;4.85;3.03;;;9.90;99.90;;;;;;5081735;28;20420;-76
2021/09/29 02:59:18;;;;;;;5.20;3.25;;;9.90;99.90;;;;;;5069394;28;20041;-76
2021/09/29 03:01:44;;;;;;;7.43;3.35;;;9.90;99.90;;;;;;5070380;28;20043;-76
2021/09/29 03:04:10;;;;;;;4.55;3.25;;;9.90;99.90;;;;;;5068849;28;20047;-76
2021/09/29 03:06:35;;;;;;;7.80;4.03;;;9.90;99.90;;;;;;5070184;28;20339;-76
2021/09/29 03:09:02;;;;;;;6.00;3.72;;;9.90;99.90;;;;;;5053724;28;20476;-76
2021/09/29 03:11:27;;;;;;;11.65;3.90;;;9.90;99.90;;;;;;5074320;28;20132;-77
2021/09/29 03:13:53;;;;;;;6.72;3.17;;;9.80;99.90;;;;;;5051791;28;20107;-77
2021/09/29 03:16:19;;;;;;;4.18;3.22;;;9.80;99.90;;;;;;5075493;28;20090;-77
2021/09/29 03:18:47;;;;;;;5.38;2.30;;;9.80;99.90;;;;;;5054724;28;20444;-77
2021/09/29 03:21:13;;;;;;;4.03;2.70;;;9.80;99.90;;;;;;5069443;28;20115;-78
2021/09/29 03:23:38;;;;;;;4.82;3.70;;;9.80;99.90;;;;;;5065214;28;20163;-77
2021/09/29 03:26:04;;;;;;;4.80;3.08;;;9.80;99.90;;;;;;5046090;28;20055;-77
2021/09/29 03:28:30;;;;;;;8.85;3.92;;;9.80;99.90;;;;;;5069881;28;20076;-77
2021/09/29 03:30:56;;;;;;;10.55;3.80;;;9.80;99.90;;;;;;5071788;28;20075;-76
2021/09/29 03:33:21;;;;;;;6.60;3.60;;;9.90;99.90;;;;;;5059838;28;20061;-76
2021/09/29 03:35:47;;;;;;;3.33;2.22;;;9.80;99.90;;;;;;5068346;28;20159;-77
2021/09/29 03:38:13;;;;;;;7.78;3.47;;;9.90;99.90;;;;;;5069520;28;20046;-78
2021/09/29 03:40:39;;;;;;;5.60;4.05;;;9.90;99.90;;;;;;5071891;28;20035;-77
2021/09/29 03:43:05;;;;;;;14.27;3.65;;;9.90;99.90;;;;;;5055598;28;20444;-77
2021/09/29 03:45:31;;;;;;;10.93;3.28;;;9.90;99.90;;;;;;5060302;28;20051;-76
2021/09/29 03:47:57;;;;;;;3.60;2.42;;;9.90;99.90;;;;;;5073157;28;20044;-76
2021/09/29 03:50:22;;;;;;;5.50;3.40;;;9.90;99.90;;;;;;5065056;28;20509;-77
2021/09/29 03:52:48;;;;;;;3.85;3.30;;;9.90;99.90;;;;;;5055221;28;20063;-77
2021/09/29 03:55:15;;;;;;;6.85;2.78;;;9.90;99.90;;;;;;5082023;28;20088;-77
2021/09/29 03:57:41;;;;;;;7.13;3.10;;;9.90;99.90;;;;;;5066282;28;20079;-77
2021/09/29 04:00:10;;;;;;;4.25;2.75;;;10.00;99.90;;;;;;5068801;28;20068;-77
2021/09/29 04:02:36;;;;;;;5.28;3.15;;;10.00;99.90;;;;;;5069446;28;20055;-77
2021/09/29 04:05:03;;;;;;;2.50;2.08;;;9.90;99.90;;;;;;5068189;28;20048;-77
2021/09/29 04:07:29;;;;;;;6.57;3.65;;;9.90;99.90;;;;;;5070483;28;20040;-76
2021/09/29 04:09:55;;;;;;;3.92;2.78;;;9.90;99.90;;;;;;5067891;28;20051;-77
2021/09/29 04:12:21;;;;;;;5.13;3.38;;;9.90;99.90;;;;;;5070212;28;20052;-77
2021/09/29 04:14:51;;;;;;;4.38;2.97;;;9.90;99.90;;;;;;5069536;28;20074;-77
2021/09/29 04:17:17;;;;;;;3.97;2.72;;;9.90;99.90;;;;;;5061404;28;20502;-76
2021/09/29 04:19:43;;;;;;;3.63;2.50;;;9.90;99.90;;;;;;5051629;28;20044;-77
2021/09/29 04:22:10;;;;;;;6.97;3.97;;;9.90;99.90;;;;;;5070398;28;20037;-77
2021/09/29 04:24:44;;;;;;;5.13;2.50;;;9.90;99.90;;;;;;5063668;28;20048;-78
2021/09/29 04:27:10;;;;;;;6.60;3.80;;;10.00;99.90;;;;;;5070238;28;20044;-77
2021/09/29 04:29:37;;;;;;;4.03;2.88;;;9.90;99.90;;;;;;5069100;28;20051;-77
2021/09/29 04:32:04;;;;;;;4.00;2.45;;;9.80;99.90;;;;;;5070507;28;20037;-76
2021/09/29 04:34:29;;;;;;;5.57;3.22;;;9.80;99.90;;;;;;5068351;28;20110;-77
2021/09/29 04:36:55;;;;;;;6.00;4.40;;;9.80;99.90;;;;;;5070878;28;20426;-76
2021/09/29 04:39:21;;;;;;;6.35;3.92;;;9.80;99.90;;;;;;5068593;28;20048;-77
2021/09/29 04:41:47;;;;;;;5.05;3.28;;;9.80;99.90;;;;;;5079351;28;20063;-77
2021/09/29 04:44:12;;;;;;;4.18;2.72;;;9.90;99.90;;;;;;5076684;28;20075;-77
2021/09/29 04:46:38;;;;;;;3.90;2.70;;;9.90;99.90;;;;;;5069293;28;20071;-75
2021/09/29 04:49:04;;;;;;;3.60;2.85;;;9.90;99.90;;;;;;5068500;28;20040;-76
2021/09/29 04:51:31;;;;;;;5.45;2.78;;;9.90;99.90;;;;;;5070080;28;20052;-77
2021/09/29 04:53:56;;;;;;;8.40;4.13;;;9.90;99.90;;;;;;5069288;28;20837;-77
2021/09/29 04:56:22;;;;;;;3.10;2.60;;;9.90;99.90;;;;;;5070853;28;20076;-77
2021/09/29 04:58:48;;;;;;;2.72;1.95;;;9.90;99.90;;;;;;5061357;28;20049;-77
2021/09/29 05:01:14;;;;;;;11.30;3.50;;;9.90;99.90;;;;;;5041829;28;20036;-77
2021/09/29 05:03:39;;;;;;;4.65;3.20;;;9.90;99.90;;;;;;5073862;28;20083;-76
2021/09/29 05:06:05;;;;;;;4.25;3.85;;;9.80;99.90;;;;;;5056037;28;20044;-77
2021/09/29 05:08:34;;;;;;;4.60;2.58;;;9.90;99.90;;;;;;5072120;28;20090;-77
2021/09/29 05:11:04;;;;;;;5.07;3.13;;;9.80;99.90;;;;;;5067523;28;20044;-77
2021/09/29 05:13:30;;;;;;;4.63;3.15;;;9.80;99.90;;;;;;5072568;28;20045;-77
2021/09/29 05:16:01;;;;;;;3.85;2.85;;;9.80;99.90;;;;;;5066958;28;20048;-77
2021/09/29 05:18:27;;;;;;;6.25;3.30;;;9.90;99.90;;;;;;5061050;28;20527;-76
2021/09/29 05:20:53;;;;;;;3.50;2.17;;;9.80;99.90;;;;;;5055217;28;20041;-78
2021/09/29 05:23:19;;;;;;;;;;;9.80;99.90;;;;;;5069590;28;20718;-77
2021/09/29 05:25:45;;;;;;;3.53;3.22;;;9.80;99.90;;;;;;5069793;28;19916;-79
2021/09/29 05:28:18;;;;;;;4.05;2.63;;;9.80;99.90;;;;;;5069572;28;20043;-77
2021/09/29 05:30:44;;;;;;;5.63;3.08;;;9.80;99.90;;;;;;5070476;28;20087;-77
2021/09/29 05:33:10;;;;;;;5.05;3.00;;;9.80;99.90;;;;;;5068234;28;20475;-77
2021/09/29 05:35:36;;;;;;;;;;;9.80;99.90;;;;;;5054139;28;20059;-76
2021/09/29 05:38:02;;;;;;;3.75;2.92;;;9.80;99.90;;;;;;5076585;28;19916;-77
2021/09/29 05:40:27;;;;;;;;;;;9.80;99.90;;;;;;5075525;28;20056;-78
2021/09/29 05:42:53;;;;;;;4.13;3.47;;;9.80;99.90;;;;;;5080293;28;19926;-78
2021/09/29 05:45:19;;;;;;;3.70;2.25;;;9.70;99.90;;;;;;5081776;28;20040;-79
2021/09/29 05:47:45;;;;;;;3.80;2.83;;;9.80;99.90;;;;;;5058546;28;20043;-77
2021/09/29 05:50:11;;;;;;;3.50;2.50;;;9.70;99.90;;;;;;5060275;28;20044;-75
2021/09/29 05:52:36;;;;;;;4.72;2.90;;;9.70;99.90;;;;;;5048358;28;20036;-78
2021/09/29 05:55:03;;;;;;;7.85;3.25;;;9.70;99.90;;;;;;5036056;28;20045;-78
2021/09/29 05:57:29;;;;;;;5.95;4.03;;;9.70;99.90;;;;;;5054216;28;20040;-75
2021/09/29 05:59:56;;;;;;;7.45;3.00;;;9.80;99.90;;;;;;5055488;28;20060;-76
2021/09/29 06:02:22;;;;;;;5.32;3.00;;;9.80;99.90;;;;;;5069967;28;20194;-77
2021/09/29 06:04:47;;;;;;;6.10;4.57;;;9.80;99.90;;;;;;5069341;28;20048;-77
2021/09/29 06:07:15;;;;;;;2.80;2.50;;;9.80;99.90;;;;;;5038220;28;20052;-80
2021/09/29 06:09:42;;;;;;;2.30;2.05;;;9.90;99.90;;;;;;5070519;28;20052;-78
2021/09/29 06:12:08;;;;;;;5.43;3.35;;;9.90;99.90;;;;;;5053089;28;20150;-81
2021/09/29 06:14:35;;;;;;;3.05;2.78;;;9.90;99.90;;;;;;5068954;28;20040;-80
2021/09/29 06:19:48;;;;;;;;;;;10.00;99.90;;;;;;5069751;28;20542;-81
2021/09/29 06:22:14;;;;;;;9.55;3.63;;;10.10;99.90;;;;;;5067018;28;19920;-79
2021/09/29 06:24:40;;;;;;;5.57;2.95;;;10.20;99.90;;;;;;5068545;28;20121;-77
2021/09/29 06:27:06;;;;;;;3.85;3.00;;;10.30;99.90;;;;;;5069725;28;20831;-77
2021/09/29 06:29:32;;;;;;;3.80;2.92;;;10.30;99.90;;;;;;5070552;28;20040;-77
2021/09/29 06:31:58;;;;;;;5.45;3.42;;;10.30;99.90;;;;;;5057802;28;20048;-75
2021/09/29 06:34:24;;;;;;;2.15;1.60;;;10.40;99.90;;;;;;5073317;28;20514;-75
2021/09/29 06:36:50;;;;;;;5.53;2.25;;;10.40;99.90;;;;;;5093940;28;20509;-76
2021/09/29 06:39:16;;;;;;;7.32;2.63;;;10.40;99.90;;;;;;5071206;28;20119;-77
2021/09/29 06:41:41;;;;;;;4.15;2.72;;;10.50;99.90;;;;;;5069255;28;20025;-77
2021/09/29 06:44:08;;;;;;;5.00;3.67;;;10.50;99.90;;;;;;5052781;28;20074;-78
2021/09/29 06:46:34;;;;;;;4.32;3.50;;;10.60;99.90;;;;;;5072208;28;20747;-78
2021/09/29 06:49:01;;;;;;;6.47;3.25;;;10.60;99.90;;;;;;5069451;28;20072;-80
2021/09/29 06:51:27;;;;;;;4.30;2.53;;;10.70;99.90;;;;;;5074227;28;20044;-81
2021/09/29 06:53:53;;;;;;;6.45;3.17;;;10.70;99.90;;;;;;5068402;28;20047;-81
2021/09/29 06:56:19;;;;;;;4.18;3.15;;;10.80;99.90;;;;;;5069809;28;20036;-82
2021/09/29 06:58:46;;;;;;;3.45;2.97;;;10.90;99.90;;;;;;5069009;28;20048;-75
2021/09/29 07:01:12;;;;;;;4.18;2.97;;;10.90;99.90;;;;;;5066621;28;20059;-79
2021/09/29 07:03:38;;;;;;;3.45;2.28;;;10.90;99.90;;;;;;5042661;28;20059;-80
2021/09/29 07:06:04;;;;;;;4.72;3.00;;;11.00;99.90;;;;;;5069578;28;20483;-78
2021/09/29 07:08:30;;;;;;;3.92;2.90;;;11.10;99.90;;;;;;5069349;28;20704;-79
2021/09/29 07:10:56;;;;;;;3.45;2.83;;;11.20;99.90;;;;;;5063628;28;20052;-79
2021/09/29 07:13:22;;;;;;;3.15;2.55;;;11.30;99.90;;;;;;5074475;28;20091;-79
2021/09/29 07:15:49;;;;;;;4.43;2.65;;;11.30;99.90;;;;;;5066929;28;20082;-80
2021/09/29 07:18:16;;;;;;;5.03;2.80;;;11.40;99.90;;;;;;5060813;28;20048;-80
2021/09/29 07:20:42;;;;;;;4.65;2.67;;;11.50;99.90;;;;;;5050141;28;20438;-80
2021/09/29 07:23:08;;;;;;;;;;;11.60;99.90;;;;;;5061915;28;20051;-80
2021/09/29 07:25:35;;;;;;;5.45;2.13;;;11.60;99.90;;;;;;5044510;28;19928;-79
2021/09/29 07:28:01;;;;;;;8.75;3.30;;;11.70;99.90;;;;;;5061223;28;20048;-76
2021/09/29 07:30:27;;;;;;;4.07;2.33;;;11.70;99.90;;;;;;5044264;28;20479;-79
2021/09/29 07:32:55;;;;;;;4.30;2.80;;;11.80;99.90;;;;;;5030287;28;20048;-80
2021/09/29 07:35:21;;;;;;;3.72;2.75;;;11.90;99.90;;;;;;5030037;28;20061;-80
2021/09/29 07:37:47;;;;;;;6.00;2.97;;;12.00;99.90;;;;;;5066743;28;20173;-78
2021/09/29 07:40:13;;;;;;;3.22;2.15;;;12.00;99.90;;;;;;5062763;28;20112;-81
2021/09/29 07:42:39;;;;;;;3.30;2.72;;;12.00;99.90;;;;;;5050173;28;20036;-77
2021/09/29 07:45:07;;;;;;;6.82;3.38;;;12.00;99.90;;;;;;5067931;28;20081;-79
2021/09/29 07:47:34;;;;;;;1.70;1.50;;;12.00;99.90;;;;;;5064481;28;20071;-78
2021/09/29 07:50:00;;;;;;;4.05;2.10;;;11.90;99.90;;;;;;5064734;28;20044;-78
2021/09/29 07:52:25;;;;;;;;;;;11.90;99.90;;;;;;5063738;28;20355;-78
2021/09/29 07:54:52;;;;;;;4.43;2.53;;;11.80;99.90;;;;;;5065064;28;19970;-76
2021/09/29 07:57:18;;;;;;;2.10;1.65;;;11.70;99.90;;;;;;5015142;28;20195;-78
2021/09/29 07:59:43;;;;;;;2.65;1.92;;;11.70;99.90;;;;;;5065848;28;20131;-77
2021/09/29 08:02:09;;;;;;;3.40;1.85;;;11.70;99.90;;;;;;5059065;28;20036;-77
2021/09/29 08:04:37;;;;;;;5.18;2.60;;;11.70;99.90;;;;;;5060502;28;20115;-78
2021/09/29 08:07:03;;;;;;;4.10;2.80;;;11.70;99.90;;;;;;5078168;28;20067;-78
2021/09/29 08:09:29;;;;;;;3.00;2.05;;;11.70;99.90;;;;;;5049887;28;20052;-76
2021/09/29 08:11:55;;;;;;;4.88;2.13;;;11.70;99.90;;;;;;5053044;28;20063;-77
2021/09/29 08:14:22;;;;;;;3.53;2.47;;;11.80;99.90;;;;;;5065862;28;20048;-78
2021/09/29 08:16:48;;;;;;;2.92;2.13;;;11.80;99.90;;;;;;5059372;28;20067;-80
2021/09/29 08:19:14;;;;;;;2.97;2.60;;;11.90;99.90;;;;;;5058068;28;20496;-79
2021/09/29 08:21:41;;;;;;;3.17;2.63;;;12.00;99.90;;;;;;5071609;28;20788;-78
2021/09/29 08:24:10;;;;;;;4.20;2.72;;;12.10;99.90;;;;;;5067826;28;20049;-80
2021/09/29 08:29:23;;;;;;;3.95;3.05;;;12.20;99.90;;;;;;5058760;28;20048;-80
2021/09/29 08:32:04;;;;;;;4.50;1.90;;;12.30;99.90;;;;;;5032187;28;20036;-82
2021/09/29 08:40:04;;;;;;;3.70;2.03;;;12.50;99.90;;;;;;5090975;28;20039;-76
2021/09/29 08:47:36;;;;;;;4.28;1.75;;;12.70;99.90;;;;;;5066795;28;20044;-79
2021/09/29 08:52:46;;;;;;;6.05;2.88;;;12.80;99.90;;;;;;5053829;28;20421;-79
2021/09/29 08:55:35;;;;;;;3.25;2.15;;;12.80;99.90;;;;;;5071179;28;20048;-77
2021/09/29 09:17:30;;;;;;;2.70;2.08;;;12.60;99.90;;;;;;5069726;28;20114;-78
2021/09/29 09:20:14;;;;;;;3.63;2.25;;;12.50;99.90;;;;;;5042709;28;20045;-77
2021/09/29 09:22:40;;;;;;;5.15;2.67;;;12.50;99.90;;;;;;5066243;28;20073;-77
2021/09/29 09:25:06;;;;;;;;;;;12.50;99.90;;;;;;5067043;28;20043;-78
2021/09/29 09:27:41;;;;;;;3.85;2.30;;;12.50;99.90;;;;;;5071262;28;19920;-77
2021/09/29 09:30:08;;;;;;;2.97;1.85;;;12.50;99.90;;;;;;5063293;28;20056;-80
2021/09/29 09:32:43;;;;;;;2.20;1.65;;;12.50;99.90;;;;;;5069629;28;20051;-82
2021/09/29 09:35:13;;;;;;;5.10;2.47;;;12.50;99.90;;;;;;5064743;28;20064;-80
2021/09/29 09:37:44;;;;;;;5.13;3.15;;;12.60;99.90;;;;;;5034870;28;20052;-80
2021/09/29 09:40:13;;;;;;;2.03;1.73;;;12.60;99.90;;;;;;5071218;28;20101;-82
2021/09/29 09:42:41;;;;;;;5.10;2.50;;;12.60;99.90;;;;;;5070810;28;20482;-81
2021/09/29 09:45:08;;;;;;;7.53;3.50;;;12.60;99.90;;;;;;5070699;28;20040;-78
2021/09/29 09:47:44;;;;;;;5.90;3.10;;;12.60;99.90;;;;;;5064400;28;20064;-79
2021/09/29 09:50:10;;;;;;;2.78;1.95;;;12.60;99.90;;;;;;5060974;28;20468;-78
2021/09/29 09:52:42;;;;;;;3.80;2.83;;;12.70;99.90;;;;;;5052877;28;20044;-79
2021/09/29 09:55:16;;;;;;;2.45;1.92;;;12.60;99.90;;;;;;5054676;28;20049;-78
2021/09/29 09:57:43;;;;;;;2.60;2.40;;;12.70;99.90;;;;;;5063943;28;20381;-82
2021/09/29 10:00:12;;;;;;;4.25;2.92;;;12.70;99.90;;;;;;5080283;28;20037;-81
2021/09/29 10:02:40;;;;;;;3.63;2.35;;;12.70;99.90;;;;;;5076003;28;20390;-82
2021/09/29 10:05:07;;;;;;;3.47;2.70;;;12.70;99.90;;;;;;5073966;28;20064;-78
2021/09/29 10:07:33;;;;;;;2.78;2.40;;;12.60;99.90;;;;;;5057388;28;20096;-78
2021/09/29 10:10:08;;;;;;;;;;;12.50;99.90;;;;;;5064600;28;20059;-84
2021/09/29 10:22:47;;;;;;;3.40;2.15;;;12.40;99.90;;;;;;5070900;28;20044;-83
2021/09/29 10:26:07;;;;;;;1.95;1.70;;;12.30;99.90;;;;;;5074594;28;20091;-80
2021/09/29 10:26:26;;;;;;;4.05;2.53;;;12.30;99.90;;;;;;5056590;28;20067;-81
2021/09/29 10:29:09;;;;;;;6.65;3.05;;;12.40;99.90;;;;;;5050611;28;20170;-82
2021/09/29 10:34:56;;;;;;;3.22;2.72;;;12.50;99.90;;;;;;5068946;28;20066;-83
2021/09/29 10:53:10;;;;;;;3.58;2.10;;;12.70;99.90;;;;;;5049984;28;20040;-86
2021/09/29 11:05:12;;;;;;;2.28;2.08;;;12.80;99.90;;;;;;5071702;28;20044;-85
2021/09/29 11:08:34;;;;;;;3.95;2.47;;;12.80;99.90;;;;;;5063338;28;20044;-88
2021/09/29 11:30:44;;;;;;;1.55;1.05;;;12.70;99.90;;;;;;5064076;28;20713;-84
2021/09/29 11:33:46;;;;;;;1.58;1.20;;;12.60;99.90;;;;;;5074561;28;20478;-83
2021/09/29 12:09:08;;;;;;;1.13;0.88;;;12.10;99.90;;;;;;5074042;28;20048;-84
2021/09/29 12:11:53;;;;;;;0.85;0.77;;;12.10;99.90;;;;;;5065832;28;20048;-82
2021/09/29 12:14:20;;;;;;;0.82;0.63;;;12.10;99.90;;;;;;5057188;28;20051;-81
2021/09/29 12:16:49;;;;;;;0.60;0.60;;;12.10;99.90;;;;;;5067238;28;20517;-83
2021/09/29 12:19:24;;;;;;;0.45;0.45;;;11.80;99.90;;;;;;5073146;28;20482;-82
2021/09/29 12:24:27;;;;;;;1.75;0.68;;;12.00;99.90;;;;;;5050856;28;20519;-82
2021/09/29 12:26:54;;;;;;;0.50;0.50;;;12.00;99.90;;;;;;5056943;28;20095;-84
2021/09/29 12:29:34;;;;;;;1.13;0.75;;;12.00;99.90;;;;;;5059554;28;20043;-87
2021/09/29 12:35:01;;;;;;;0.40;0.40;;;12.00;99.90;;;;;;5067419;28;20079;-84
2021/09/29 12:37:26;;;;;;;0.63;0.63;;;11.90;99.90;;;;;;5049135;28;20366;-80
2021/09/29 12:39:56;;;;;;;0.43;0.43;;;12.00;99.90;;;;;;5059930;28;20053;-81
2021/09/29 12:42:32;;;;;;;0.50;0.50;;;12.10;99.90;;;;;;5073276;28;20048;-84
2021/09/29 12:44:59;;;;;;;0.60;0.60;;;12.00;99.90;;;;;;5071554;28;20069;-84
2021/09/29 12:50:11;;;;;;;0.50;0.50;;;12.00;99.90;;;;;;5077515;28;20124;-87
2021/09/29 12:52:39;;;;;;;0.90;0.52;;;12.00;99.90;;;;;;5063054;28;20040;-87
2021/09/29 12:55:07;;;;;;;3.05;1.30;;;11.90;99.90;;;;;;5076821;28;20127;-84
2021/09/29 12:57:32;;;;;;;0.68;0.68;;;11.90;99.90;;;;;;5070988;28;20070;-85
2021/09/29 12:59:59;;;;;;;0.70;0.70;;;12.00;99.90;;;;;;5065302;28;20598;-83
2021/09/29 13:02:26;;;;;;;1.45;0.60;;;11.90;99.90;;;;;;5036552;28;20533;-83
2021/09/29 13:04:53;;;;;;;1.17;0.85;;;11.90;99.90;;;;;;5069572;28;20502;-83
2021/09/29 13:07:19;;;;;;;3.03;0.73;;;11.90;99.90;;;;;;5055121;28;20123;-80
2021/09/29 13:09:45;;;;;;;0.57;0.57;;;11.90;99.90;;;;;;5034376;28;20112;-85
2021/09/29 13:12:11;;;;;;;0.52;0.52;;;11.90;99.90;;;;;;5055808;28;20367;-84
2021/09/29 13:14:38;;;;;;;0.40;0.40;;;11.90;99.90;;;;;;5060866;28;20436;-87
2021/09/29 13:17:06;;;;;;;1.33;0.82;;;11.90;99.90;;;;;;5056334;28;20694;-84
2021/09/29 13:19:48;;;;;;;0.50;0.50;;;10.90;99.90;;;;;;5075359;28;20047;-83
2021/09/29 13:22:26;;;;;;;1.70;1.05;;;11.90;99.90;;;;;;5069721;28;20093;-85
2021/09/29 13:35:09;;;;;;;3.70;0.93;;;11.70;99.90;;;;;;5071622;28;20143;-84
2021/09/29 13:38:19;;;;;;;0.85;0.60;;;11.60;99.90;;;;;;5073287;28;20555;-83
2021/09/29 13:40:50;;;;;;;5.78;0.95;;;11.60;99.90;;;;;;5039911;28;20041;-83
2021/09/29 13:43:15;;;;;;;0.70;0.70;;;11.60;99.90;;;;;;5083332;28;20126;-82
2021/09/29 13:45:41;;;;;;;0.40;0.40;;;11.70;99.90;;;;;;5075012;28;20127;-84
2021/09/29 13:48:13;;;;;;;0.70;0.70;;;11.70;99.90;;;;;;5071186;28;20027;-84
2021/09/29 13:50:39;;;;;;;1.02;0.60;;;11.70;99.90;;;;;;5044751;28;20039;-85
2021/09/29 13:53:06;;;;;;;0.40;0.40;;;11.70;99.90;;;;;;5038658;28;20036;-85
2021/09/29 13:55:32;;;;;;;0.95;0.95;;;11.70;99.90;;;;;;5056638;28;20478;-83
2021/09/29 13:58:21;;;;;;;0.40;0.40;;;11.70;99.90;;;;;;5050068;28;20161;-86
2021/09/29 14:01:11;;;;;;;0.77;0.45;;;11.80;99.90;;;;;;5059682;28;20118;-86
2021/09/29 14:33:58;;;;;;;5.07;0.82;;;11.50;99.90;;;;;;5068900;28;20063;-79
2021/09/29 14:36:24;;;;;;;0.52;0.52;;;11.50;99.90;;;;;;5053436;28;20040;-81
2021/09/29 14:38:50;;;;;;;0.57;0.57;;;11.50;99.90;;;;;;5083860;28;20058;-86
2021/09/29 14:41:16;;;;;;;0.50;0.50;;;11.50;99.90;;;;;;5066351;28;20041;-84
2021/09/29 14:43:42;;;;;;;0.50;0.50;;;11.40;99.90;;;;;;5035896;28;20047;-82
2021/09/29 14:46:08;;;;;;;0.88;0.52;;;11.40;99.90;;;;;;5052693;28;20122;-80
2021/09/29 14:48:34;;;;;;;;;;;11.30;99.90;;;;;;5067758;28;20082;-80
2021/09/29 14:51:04;;;;;;;0.55;0.55;;;11.20;99.90;;;;;;5068185;28;20369;-81
2021/09/29 14:53:32;;;;;;;0.60;0.60;;;11.10;99.90;;;;;;5052402;28;20517;-82
2021/09/29 14:55:58;;;;;;;0.70;0.70;;;11.00;99.90;;;;;;5054539;28;20052;-84
2021/09/29 14:58:41;;;;;;;0.40;0.40;;;10.90;99.90;;;;;;5050204;28;20096;-82
2021/09/29 15:01:07;;;;;;;1.27;0.93;;;10.80;99.90;;;;;;5070327;28;20052;-79
2021/09/29 15:03:34;;;;;;;0.60;0.60;;;10.70;99.90;;;;;;5036001;28;20511;-78
2021/09/29 15:05:59;;;;;;;0.70;0.70;;;10.70;99.90;;;;;;5039219;28;20064;-81
2021/09/29 15:08:25;;;;;;;0.52;0.52;;;10.60;99.90;;;;;;5069911;28;20059;-82
2021/09/29 15:10:51;;;;;;;0.95;0.88;;;10.60;99.90;;;;;;5034361;28;20048;-83
2021/09/29 15:13:19;;;;;;;1.13;1.02;;;10.60;99.90;;;;;;5050218;28;20102;-80
2021/09/29 15:15:51;;;;;;;0.60;0.60;;;10.60;99.90;;;;;;5050383;28;20055;-80
2021/09/29 15:18:22;;;;;;;0.98;0.60;;;10.60;99.90;;;;;;5070011;28;20102;-81
2021/09/29 15:23:37;;;;;;;1.17;1.08;;;10.70;99.90;;;;;;5062570;28;20060;-82
2021/09/29 15:29:08;;;;;;;0.52;0.52;;;10.70;99.90;;;;;;5074705;28;20078;-86
2021/09/29 15:48:02;;;;;;;0.60;0.60;;;10.80;99.90;;;;;;5068239;28;20041;-81
2021/09/29 15:56:03;;;;;;;3.03;1.15;;;10.70;99.90;;;;;;5075503;28;20049;-84
2021/09/29 15:59:10;;;;;;;0.88;0.70;;;10.60;99.90;;;;;;5030874;28;20036;-82
2021/09/29 16:01:37;;;;;;;1.48;0.45;;;10.50;99.90;;;;;;5060529;28;20045;-83
2021/09/29 16:04:17;;;;;;;0.73;0.73;;;10.40;99.90;;;;;;5053225;28;20625;-82
2021/09/29 16:10:03;;;;;;;0.52;0.52;;;10.20;99.90;;;;;;5053104;28;20398;-80
2021/09/29 16:17:44;;;;;;;0.77;0.77;;;10.00;99.90;;;;;;5070560;28;20039;-82
2021/09/29 16:23:49;;;;;;;5.45;0.57;;;9.90;99.90;;;;;;5075822;28;20482;-79
2021/09/29 16:36:09;;;;;;;0.75;0.75;;;9.90;99.90;;;;;;5071009;28;20399;-81
2021/09/29 16:38:35;;;;;;;6.88;0.73;;;9.90;99.90;;;;;;5051446;28;20048;-81
2021/09/29 16:41:02;;;;;;;0.65;0.65;;;10.00;99.90;;;;;;5053390;28;20040;-79
2021/09/29 16:43:28;;;;;;;0.63;0.63;;;10.00;99.90;;;;;;5072177;28;20144;-82
2021/09/29 16:45:56;;;;;;;0.40;0.40;;;10.00;99.90;;;;;;5070608;28;20045;-81